Portada
METAR-TAF:

METAR-TAF

Aeroports :

Najaf, Iraq

latitud: 31-59-23N, longitud: 44-24-15E, altitud: 31 m

Observació

L'informe es va fer fa 1 hora i 27 minuts, a les 15:00 UTC
Vent 6 kt del Nord-Oest
Temperatura 21°C
Humitat 53%
Pressió 1018 hPa
Visibilitat: 8000 m

METAR: ORNI 011500Z 31006KT 8000 NSC 21/11 Q1018

Hora: 19:27 (16:27 UTC)

Pronòstic

Pronòstic vàlid del 01 a les 12 UTC al 02 a les 12 UTC
Vent 6 kt del Nord-Oest
Visibilitat: 6000 m

TAF: ORNI 0112/0212 32006KT 6000 NSC

Observacions i pronòstics meteorològics de més de 4000 aeroports (METAR i TAF).

Les estacions disponibles són els punts grocs i vermells al mapa.

Posi el ratolí al punt desitjat per veure el nom de l'estació.

Feu clic per veure les observacions i els pronòstics meteorològics.

Per canviar el mapa: feu clic els botons verds amb una creu de color negre per apropar; al botó verd amb un guió per allunyar la imatge; o en les fletxes verdes per a mapes adjacents.


METAR-TAF: